Time;durP1;ratioP1;P1;durP2;ratioP2;P2;SDS_P1;SDS_P2;PMS_P1;PMS_P2;Temp;Humidity;BMP_temperature;BMP_pressure;BME280_temperature;BME280_humidity;BME280_pressure;Samples;Min_cycle;Max_cycle;Signal;HPM_P1;HPM_P2
2023/05/25 00:00:41;;;;;;;;;;;;;;;12.54;56.10;98693.47;7377104;19;19919;-76
2023/05/25 00:03:26;;;;;;;;;;;;;;;12.52;56.27;98700.75;7374631;19;19915;-75
2023/05/25 00:05:54;;;;;;;;;;;;;;;12.50;56.92;98698.25;7374798;19;19934;-77
2023/05/25 00:08:23;;;;;;;;;;;;;;;12.41;55.41;98688.63;7378356;19;19939;-75
2023/05/25 00:10:50;;;;;;;;;;;;;;;12.40;56.17;98691.41;7375293;19;19921;-76
2023/05/25 00:13:16;;;;;;;;;;;;;;;12.38;56.95;98693.44;7375329;19;19915;-77
2023/05/25 00:15:43;;;;;;;;;;;;;;;12.36;55.71;98695.41;7375570;19;19914;-75
2023/05/25 00:18:10;;;;;;;;;;;;;;;12.29;56.88;98690.72;7377741;19;19918;-75
2023/05/25 00:20:37;;;;;;;;;;;;;;;12.36;57.44;98696.22;7371740;19;20356;-75
2023/05/25 00:23:04;;;;;;;;;;;;;;;12.33;56.84;98698.38;7369400;19;19923;-77
2023/05/25 00:25:30;;;;;;;;;;;;;;;12.33;57.14;98687.75;7374597;19;19919;-75
2023/05/25 00:27:57;;;;;;;;;;;;;;;12.35;57.37;98688.41;7370277;19;19929;-74
2023/05/25 00:30:24;;;;;;;;;;;;;;;12.29;57.06;98695.19;7376736;19;19925;-76
2023/05/25 00:32:54;;;;;;;;;;;;;;;12.25;56.54;98693.84;7368101;19;19911;-75
2023/05/25 00:35:21;;;;;;;;;;;;;;;12.37;58.67;98697.88;7378158;19;19927;-75
2023/05/25 00:37:48;;;;;;;;;;;;;;;12.40;57.51;98697.59;7373601;19;19919;-76
2023/05/25 00:40:15;;;;;;;;;;;;;;;12.42;57.62;98686.78;7374924;19;19919;-75
2023/05/25 00:42:42;;;;;;;;;;;;;;;12.43;56.85;98686.66;7367737;19;19922;-76
2023/05/25 00:45:09;;;;;;;;;;;;;;;12.50;56.99;98684.16;7372863;19;19922;-76
2023/05/25 00:47:36;;;;;;;;;;;;;;;12.56;58.40;98691.50;7374024;19;19911;-76
2023/05/25 00:50:04;;;;;;;;;;;;;;;12.58;57.53;98686.84;7370092;19;19939;-76
2023/05/25 00:52:30;;;;;;;;;;;;;;;12.58;57.14;98692.16;7370706;19;19915;-75
2023/05/25 00:54:57;;;;;;;;;;;;;;;12.61;56.02;98683.03;7372140;19;19918;-76
2023/05/25 00:57:24;;;;;;;;;;;;;;;12.59;56.20;98685.03;7371424;19;19914;-76
2023/05/25 00:59:51;;;;;;;;;;;;;;;12.58;56.00;98684.19;7369221;19;20341;-76
2023/05/25 01:02:18;;;;;;;;;;;;;;;12.61;55.45;98683.91;7368958;19;19911;-77
2023/05/25 01:04:51;;;;;;;;;;;;;;;12.62;55.95;98682.88;7371589;19;19951;-77
2023/05/25 01:07:22;;;;;;;;;;;;;;;12.62;56.02;98677.59;7366908;19;20340;-76
2023/05/25 01:09:49;;;;;;;;;;;;;;;12.64;56.37;98677.44;7371273;19;19919;-76
2023/05/25 01:12:16;;;;;;;;;;;;;;;12.63;56.00;98675.75;7368719;19;20309;-75
2023/05/25 01:14:44;;;;;;;;;;;;;;;12.57;56.15;98674.56;7369412;19;20272;-76
2023/05/25 01:17:10;;;;;;;;;;;;;;;12.53;55.83;98673.22;7367901;19;19919;-77
2023/05/25 01:19:39;;;;;;;;;;;;;;;12.52;55.71;98675.06;7372125;19;19926;-74
2023/05/25 01:22:18;;;;;;;;;;;;;;;12.50;56.48;98677.03;7362757;19;19926;-74
2023/05/25 01:24:47;;;;;;;;;;;;;;;12.47;56.66;98672.03;7362069;19;20010;-75
2023/05/25 01:27:32;;;;;;;;;;;;;;;12.48;57.43;98668.41;7369113;19;20544;-76
2023/05/25 01:29:59;;;;;;;;;;;;;;;12.46;59.35;98669.56;7370121;19;20033;-76
2023/05/25 01:32:26;;;;;;;;;;;;;;;12.37;58.07;98673.16;7368926;19;20257;-76
2023/05/25 01:34:53;;;;;;;;;;;;;;;12.33;58.13;98670.00;7368369;19;19919;-75
2023/05/25 01:37:22;;;;;;;;;;;;;;;12.29;58.22;98669.47;7363585;19;19929;-76
2023/05/25 01:39:49;;;;;;;;;;;;;;;12.18;57.02;98668.94;7366067;19;19926;-74
2023/05/25 01:42:15;;;;;;;;;;;;;;;12.12;58.15;98672.25;7373482;19;19923;-77
2023/05/25 01:44:42;;;;;;;;;;;;;;;12.05;57.96;98672.84;7381045;19;19923;-76
2023/05/25 01:47:20;;;;;;;;;;;;;;;11.99;58.68;98677.97;7371732;19;19983;-76
2023/05/25 01:49:54;;;;;;;;;;;;;;;12.09;61.00;98676.03;7372879;19;20568;-76
2023/05/25 01:52:21;;;;;;;;;;;;;;;12.03;58.92;98684.59;7372305;19;20748;-75
2023/05/25 01:55:07;;;;;;;;;;;;;;;11.99;60.10;98673.50;7375925;19;19921;-76
2023/05/25 01:57:36;;;;;;;;;;;;;;;11.98;59.87;98682.44;7378285;19;19923;-75
2023/05/25 02:00:03;;;;;;;;;;;;;;;11.98;60.26;98681.59;7374294;19;20329;-75
2023/05/25 02:02:39;;;;;;;;;;;;;;;11.91;60.49;98673.44;7374072;19;19919;-76
2023/05/25 02:05:06;;;;;;;;;;;;;;;11.87;59.10;98672.09;7375734;19;19943;-76
2023/05/25 02:07:32;;;;;;;;;;;;;;;11.88;60.12;98672.94;7375536;19;19925;-76
2023/05/25 02:10:00;;;;;;;;;;;;;;;11.86;60.26;98681.88;7373751;19;19919;-75
2023/05/25 02:12:26;;;;;;;;;;;;;;;11.76;60.31;98673.16;7377319;19;19918;-77
2023/05/25 02:14:53;;;;;;;;;;;;;;;11.72;60.10;98671.81;7374874;19;19983;-75
2023/05/25 02:17:20;;;;;;;;;;;;;;;11.70;59.53;98667.66;7372228;19;20009;-76
2023/05/25 02:19:51;;;;;;;;;;;;;;;11.70;59.68;98660.53;7376673;19;19927;-76
2023/05/25 02:22:19;;;;;;;;;;;;;;;11.67;59.98;98655.56;7372852;19;19919;-76
2023/05/25 02:24:46;;;;;;;;;;;;;;;11.68;60.32;98661.69;7377964;19;19986;-78
2023/05/25 02:27:13;;;;;;;;;;;;;;;11.66;60.23;98656.53;7374085;19;20691;-75
2023/05/25 02:29:40;;;;;;;;;;;;;;;11.64;59.40;98658.50;7378069;19;19934;-74
2023/05/25 02:32:07;;;;;;;;;;;;;;;11.64;59.82;98659.34;7375513;19;19970;-73
2023/05/25 02:34:34;;;;;;;;;;;;;;;11.64;59.24;98655.88;7380186;19;19925;-75
2023/05/25 02:37:01;;;;;;;;;;;;;;;11.60;59.35;98657.16;7368715;19;19941;-76
2023/05/25 02:39:27;;;;;;;;;;;;;;;11.59;59.27;98660.81;7378324;19;20520;-75
2023/05/25 02:41:56;;;;;;;;;;;;;;;11.53;59.43;98651.66;7373034;19;20368;-75
2023/05/25 02:44:24;;;;;;;;;;;;;;;11.52;59.86;98655.28;7372514;19;20337;-77
2023/05/25 02:46:51;;;;;;;;;;;;;;;11.46;60.07;98657.72;7374848;19;19939;-76
2023/05/25 02:49:18;;;;;;;;;;;;;;;11.39;60.32;98652.19;7377985;19;20293;-75
2023/05/25 02:51:46;;;;;;;;;;;;;;;11.37;61.15;98662.97;7374211;19;19915;-75
2023/05/25 02:54:15;;;;;;;;;;;;;;;11.31;60.69;98662.72;7373772;19;19927;-76
2023/05/25 02:56:42;;;;;;;;;;;;;;;11.30;61.23;98667.19;7375291;19;19937;-76
2023/05/25 02:59:12;;;;;;;;;;;;;;;11.34;61.84;98665.06;7374338;19;20404;-76
2023/05/25 03:01:39;;;;;;;;;;;;;;;11.40;63.19;98664.44;7375700;19;19918;-75
2023/05/25 03:04:06;;;;;;;;;;;;;;;11.41;62.07;98664.31;7368349;19;19927;-74
2023/05/25 03:06:36;;;;;;;;;;;;;;;11.40;61.91;98667.94;7374475;19;19918;-75
2023/05/25 03:09:08;;;;;;;;;;;;;;;11.43;62.15;98674.75;7374505;19;19950;-74
2023/05/25 03:11:37;;;;;;;;;;;;;;;11.32;61.78;98672.31;7377343;19;19922;-75
2023/05/25 03:14:04;;;;;;;;;;;;;;;11.35;63.14;98678.16;7370843;19;19942;-75
2023/05/25 03:16:34;;;;;;;;;;;;;;;11.33;62.79;98682.78;7372527;19;19922;-76
2023/05/25 03:19:04;;;;;;;;;;;;;;;11.18;61.37;98689.59;7376843;19;19923;-75
2023/05/25 03:21:34;;;;;;;;;;;;;;;11.17;61.98;98683.47;7372076;19;19957;-75
2023/05/25 03:24:01;;;;;;;;;;;;;;;11.13;62.07;98690.03;7373297;19;19918;-75
2023/05/25 03:26:29;;;;;;;;;;;;;;;11.05;62.47;98686.50;7367823;19;19922;-75
2023/05/25 03:29:00;;;;;;;;;;;;;;;11.01;62.39;98677.22;7372041;19;21446;-76
2023/05/25 03:31:26;;;;;;;;;;;;;;;10.97;62.60;98674.84;7372216;19;19947;-75
2023/05/25 03:33:53;;;;;;;;;;;;;;;10.95;63.24;98674.19;7371393;19;19921;-75
2023/05/25 03:36:21;;;;;;;;;;;;;;;10.91;62.87;98685.22;7370786;19;19918;-75
2023/05/25 03:38:48;;;;;;;;;;;;;;;10.92;63.20;98687.69;7377217;19;19929;-76
2023/05/25 03:41:14;;;;;;;;;;;;;;;10.87;62.57;98686.47;7372895;19;20235;-75
2023/05/25 03:43:41;;;;;;;;;;;;;;;10.91;63.67;98687.84;7377358;19;19927;-78
2023/05/25 03:46:10;;;;;;;;;;;;;;;10.89;62.28;98688.00;7372435;19;19926;-78
2023/05/25 03:48:37;;;;;;;;;;;;;;;10.95;62.66;98689.22;7374351;19;19923;-75
2023/05/25 03:51:04;;;;;;;;;;;;;;;10.96;63.35;98690.88;7367812;19;20310;-77
2023/05/25 03:53:31;;;;;;;;;;;;;;;10.97;62.28;98687.25;7368362;19;19931;-75
2023/05/25 03:55:57;;;;;;;;;;;;;;;10.95;62.50;98697.16;7372850;19;19982;-76
2023/05/25 03:58:25;;;;;;;;;;;;;;;10.98;62.91;98694.22;7377558;19;19915;-76
2023/05/25 04:00:51;;;;;;;;;;;;;;;10.95;63.17;98700.66;7373360;19;20249;-76
2023/05/25 04:03:19;;;;;;;;;;;;;;;10.96;63.54;98702.31;7369302;19;19931;-77
2023/05/25 04:05:46;;;;;;;;;;;;;;;10.92;63.14;98698.28;7374694;19;19919;-75
2023/05/25 04:08:16;;;;;;;;;;;;;;;10.91;63.42;98688.69;7370972;19;19922;-75
2023/05/25 04:10:44;;;;;;;;;;;;;;;10.92;63.62;98695.63;7370479;19;19926;-75
2023/05/25 04:13:11;;;;;;;;;;;;;;;10.99;64.08;98701.19;7370307;19;19927;-76
2023/05/25 04:15:37;;;;;;;;;;;;;;;11.04;63.38;98703.38;7373632;19;19923;-74
2023/05/25 04:18:08;;;;;;;;;;;;;;;11.05;63.57;98700.56;7373845;19;19919;-75
2023/05/25 04:20:35;;;;;;;;;;;;;;;11.06;63.30;98707.53;7374016;19;19962;-75
2023/05/25 04:23:02;;;;;;;;;;;;;;;11.06;64.12;98715.47;7362372;19;19923;-75
2023/05/25 04:25:30;;;;;;;;;;;;;;;11.09;63.96;98711.72;7371003;19;19911;-75
2023/05/25 04:27:58;;;;;;;;;;;;;;;11.08;64.25;98713.50;7369700;19;19915;-75
2023/05/25 04:30:46;;;;;;;;;;;;;;;11.06;63.26;98707.53;7368614;19;20269;-77
2023/05/25 04:33:38;;;;;;;;;;;;;;;11.07;63.14;98706.53;7373016;19;19918;-75
2023/05/25 04:36:18;;;;;;;;;;;;;;;11.08;63.44;98712.66;7371100;19;19927;-74
2023/05/25 04:38:46;;;;;;;;;;;;;;;11.14;63.41;98714.72;7368851;19;19923;-75
2023/05/25 04:41:14;;;;;;;;;;;;;;;11.23;64.42;98719.09;7364228;19;20724;-73
2023/05/25 04:43:47;;;;;;;;;;;;;;;11.28;64.15;98723.97;7368941;19;20006;-75
2023/05/25 04:46:36;;;;;;;;;;;;;;;11.23;63.75;98726.22;7370315;19;19926;-75
2023/05/25 04:49:09;;;;;;;;;;;;;;;11.10;64.13;98719.47;7372267;19;20268;-75
2023/05/25 04:51:36;;;;;;;;;;;;;;;11.14;64.44;98722.69;7371868;19;19922;-75
2023/05/25 04:54:03;;;;;;;;;;;;;;;11.16;64.06;98725.97;7368557;19;19915;-77
2023/05/25 04:56:31;;;;;;;;;;;;;;;11.19;64.28;98734.47;7367293;19;22820;-74
2023/05/25 04:58:58;;;;;;;;;;;;;;;11.32;65.58;98733.25;7368554;19;19922;-75
2023/05/25 05:01:25;;;;;;;;;;;;;;;11.27;64.06;98736.38;7368780;19;19933;-75
2023/05/25 05:04:06;;;;;;;;;;;;;;;;;;;;;
2023/05/25 05:06:38;;;;;;;;;;;;;;;11.39;63.85;98739.63;7368252;19;19911;-76
2023/05/25 05:09:06;;;;;;;;;;;;;;;11.47;64.70;98729.09;7370889;19;19952;-76
2023/05/25 05:11:32;;;;;;;;;;;;;;;11.36;64.26;98724.84;7373995;19;20352;-76
2023/05/25 05:14:00;;;;;;;;;;;;;;;11.43;64.39;98725.91;7369281;19;19922;-77
2023/05/25 05:16:33;;;;;;;;;;;;;;;11.40;64.46;98730.66;7376683;19;19919;-77
2023/05/25 05:19:01;;;;;;;;;;;;;;;11.35;64.41;98747.03;7371387;19;19914;-75
2023/05/25 05:21:28;;;;;;;;;;;;;;;11.32;64.35;98752.66;7369115;19;19918;-77
2023/05/25 05:23:55;;;;;;;;;;;;;;;11.49;64.82;98761.56;7369594;19;19986;-76
2023/05/25 05:26:22;;;;;;;;;;;;;;;11.49;64.93;98755.44;7369190;19;19948;-76
2023/05/25 05:28:51;;;;;;;;;;;;;;;11.60;65.46;98755.19;7368282;19;19998;-76
2023/05/25 05:31:18;;;;;;;;;;;;;;;11.55;64.46;98762.78;7361306;19;20484;-76
2023/05/25 05:33:45;;;;;;;;;;;;;;;11.62;65.01;98761.19;7363546;19;19963;-77
2023/05/25 05:36:14;;;;;;;;;;;;;;;11.53;64.59;98762.09;7360426;19;19914;-76
2023/05/25 05:38:41;;;;;;;;;;;;;;;11.61;64.84;98763.00;7371565;19;19918;-81
2023/05/25 05:41:12;;;;;;;;;;;;;;;11.61;64.87;98772.75;7371321;19;19926;-77
2023/05/25 05:43:42;;;;;;;;;;;;;;;11.57;64.47;98769.59;7371400;19;19926;-77
2023/05/25 05:46:09;;;;;;;;;;;;;;;11.65;64.58;98761.69;7374980;19;19933;-79
2023/05/25 05:48:38;;;;;;;;;;;;;;;11.83;64.56;98764.34;7379693;19;19918;-77
2023/05/25 05:51:05;;;;;;;;;;;;;;;11.92;64.32;98770.56;7377875;19;19919;-78
2023/05/25 05:53:34;;;;;;;;;;;;;;;11.81;63.62;98763.66;7373492;19;20635;-76
2023/05/25 05:56:01;;;;;;;;;;;;;;;11.93;62.87;98768.72;7377394;19;19923;-79
2023/05/25 05:58:28;;;;;;;;;;;;;;;12.07;63.64;98770.84;7378119;19;19990;-78
2023/05/25 06:00:56;;;;;;;;;;;;;;;12.13;64.20;98780.81;7373016;19;19923;-78
2023/05/25 06:03:23;;;;;;;;;;;;;;;12.23;63.08;98781.53;7364407;19;20025;-76
2023/05/25 06:05:51;;;;;;;;;;;;;;;12.19;62.08;98780.22;7375866;19;20525;-77
2023/05/25 06:08:18;;;;;;;;;;;;;;;12.33;63.25;98791.22;7374930;19;20258;-77
2023/05/25 06:10:45;;;;;;;;;;;;;;;12.38;61.75;98784.47;7376935;19;21690;-78
2023/05/25 06:13:12;;;;;;;;;;;;;;;12.47;61.53;98793.28;7369263;19;19930;-77
2023/05/25 06:15:41;;;;;;;;;;;;;;;12.49;61.36;98797.44;7373405;19;19990;-78
2023/05/25 06:18:13;;;;;;;;;;;;;;;12.60;61.81;98798.16;7370242;19;20272;-77
2023/05/25 06:20:40;;;;;;;;;;;;;;;12.65;61.08;98791.41;7372472;19;19914;-76
2023/05/25 06:23:10;;;;;;;;;;;;;;;12.65;60.87;98788.75;7367210;19;20261;-77
2023/05/25 06:25:36;;;;;;;;;;;;;;;12.71;60.92;98788.09;7375554;19;19921;-76
2023/05/25 06:28:04;;;;;;;;;;;;;;;12.82;61.23;98788.81;7375367;19;19923;-76
2023/05/25 06:30:31;;;;;;;;;;;;;;;12.88;62.25;98790.84;7379341;19;20311;-77
2023/05/25 06:32:57;;;;;;;;;;;;;;;12.94;62.33;98787.53;7378919;19;20761;-77
2023/05/25 06:35:25;;;;;;;;;;;;;;;12.96;61.44;98778.41;7383578;19;20675;-78
2023/05/25 06:37:54;;;;;;;;;;;;;;;13.05;62.47;98784.56;7379081;19;19942;-77
2023/05/25 06:40:20;;;;;;;;;;;;;;;13.12;62.18;98787.44;7376888;19;19922;-77
2023/05/25 06:42:47;;;;;;;;;;;;;;;13.12;60.66;98792.75;7383694;19;20341;-79
2023/05/25 06:45:39;;;;;;;;;;;;;;;13.04;59.40;98796.19;7380155;19;19915;-79
2023/05/25 06:48:06;;;;;;;;;;;;;;;13.15;60.38;98797.72;7379429;19;19926;-79
2023/05/25 06:50:33;;;;;;;;;;;;;;;13.11;59.57;98796.38;7383066;19;20229;-76
2023/05/25 06:53:00;;;;;;;;;;;;;;;13.31;60.73;98804.94;7375409;19;19914;-77
2023/05/25 06:55:27;;;;;;;;;;;;;;;13.46;62.35;98805.97;7378456;19;19915;-77
2023/05/25 06:57:53;;;;;;;;;;;;;;;13.66;62.24;98809.13;7383159;19;19935;-77
2023/05/25 07:00:20;;;;;;;;;;;;;;;13.86;62.33;98814.97;7380641;19;19918;-78
2023/05/25 07:02:47;;;;;;;;;;;;;;;14.01;62.31;98821.31;7377428;19;19919;-76
2023/05/25 07:05:13;;;;;;;;;;;;;;;14.05;60.19;98811.16;7381889;19;19926;-77
2023/05/25 07:07:41;;;;;;;;;;;;;;;14.09;59.88;98812.50;7380480;19;19922;-80
2023/05/25 07:10:08;;;;;;;;;;;;;;;14.25;59.19;98808.97;7380650;19;19978;-76
2023/05/25 07:12:35;;;;;;;;;;;;;;;14.31;59.56;98813.63;7381565;19;19915;-77
2023/05/25 07:15:02;;;;;;;;;;;;;;;14.38;60.06;98814.63;7381405;19;19925;-78
2023/05/25 07:17:30;;;;;;;;;;;;;;;14.50;60.66;98821.22;7379022;19;20697;-77
2023/05/25 07:19:57;;;;;;;;;;;;;;;14.54;58.84;98816.44;7381198;19;20366;-79
2023/05/25 07:22:24;;;;;;;;;;;;;;;14.59;60.26;98829.25;7377219;19;20015;-78
2023/05/25 07:24:50;;;;;;;;;;;;;;;14.54;58.52;98816.44;7383480;19;20303;-79
2023/05/25 07:27:18;;;;;;;;;;;;;;;14.61;59.62;98816.56;7379613;19;19918;-79
2023/05/25 07:29:45;;;;;;;;;;;;;;;14.49;58.28;98819.56;7384375;19;19922;-79
2023/05/25 07:32:11;;;;;;;;;;;;;;;14.63;59.66;98812.75;7376608;19;20274;-77
2023/05/25 07:34:38;;;;;;;;;;;;;;;14.74;59.68;98826.69;7376321;19;20008;-78
2023/05/25 07:37:05;;;;;;;;;;;;;;;14.78;59.83;98828.84;7374292;19;20375;-77
2023/05/25 07:39:31;;;;;;;;;;;;;;;14.82;59.76;98835.47;7381124;19;20272;-78
2023/05/25 07:42:00;;;;;;;;;;;;;;;14.84;60.46;98830.81;7378548;19;19925;-77
2023/05/25 07:44:28;;;;;;;;;;;;;;;14.83;59.83;98831.00;7378694;19;19914;-78
2023/05/25 07:46:55;;;;;;;;;;;;;;;14.99;59.77;98817.63;7376635;19;19990;-77
2023/05/25 07:49:22;;;;;;;;;;;;;;;15.12;60.15;98823.22;7379399;19;19925;-77
2023/05/25 07:51:48;;;;;;;;;;;;;;;15.14;58.43;98839.06;7374617;19;19919;-78
2023/05/25 07:54:15;;;;;;;;;;;;;;;15.16;59.01;98831.69;7377875;19;19918;-79
2023/05/25 07:56:42;;;;;;;;;;;;;;;15.22;58.36;98825.69;7379003;19;19929;-77
2023/05/25 07:59:09;;;;;;;;;;;;;;;15.36;57.96;98824.94;7376047;19;19929;-79
2023/05/25 08:01:37;;;;;;;;;;;;;;;15.48;58.26;98827.19;7378041;19;19927;-77
2023/05/25 08:04:04;;;;;;;;;;;;;;;15.56;58.05;98828.00;7377389;19;19965;-77
2023/05/25 08:06:31;;;;;;;;;;;;;;;15.72;58.37;98828.94;7376407;19;19923;-78
2023/05/25 08:08:58;;;;;;;;;;;;;;;15.83;55.74;98833.84;7381412;19;20027;-75
2023/05/25 08:11:25;;;;;;;;;;;;;;;16.02;57.08;98821.84;7375741;19;19950;-78
2023/05/25 08:13:53;;;;;;;;;;;;;;;15.90;54.43;98824.09;7376295;19;19929;-78
2023/05/25 08:16:20;;;;;;;;;;;;;;;16.18;57.88;98819.03;7373928;19;19938;-80
2023/05/25 08:18:46;;;;;;;;;;;;;;;15.99;55.35;98811.53;7376328;19;19915;-77
2023/05/25 08:21:13;;;;;;;;;;;;;;;16.08;57.67;98814.94;7376195;19;20355;-76
2023/05/25 08:23:41;;;;;;;;;;;;;;;16.02;55.38;98811.16;7375676;19;19974;-75
2023/05/25 08:26:11;;;;;;;;;;;;;;;16.29;57.68;98816.94;7373278;19;19926;-77
2023/05/25 08:28:59;;;;;;;;;;;;;;;16.37;54.35;98812.34;7377984;19;19918;-82
2023/05/25 08:31:26;;;;;;;;;;;;;;;16.58;57.40;98816.97;7372550;19;19944;-78
2023/05/25 08:33:53;;;;;;;;;;;;;;;16.72;57.00;98823.34;7375596;19;20641;-82
2023/05/25 08:36:19;;;;;;;;;;;;;;;16.88;57.02;98830.38;7372506;19;19944;-76
2023/05/25 08:38:46;;;;;;;;;;;;;;;16.97;55.40;98825.75;7374520;19;19911;-76
2023/05/25 08:41:13;;;;;;;;;;;;;;;17.18;55.23;98828.50;7376980;19;19918;-81
2023/05/25 08:43:40;;;;;;;;;;;;;;;17.24;54.31;98825.06;7375013;19;19919;-75
2023/05/25 08:46:07;;;;;;;;;;;;;;;17.34;54.43;98827.44;7373891;19;19998;-77
2023/05/25 08:48:35;;;;;;;;;;;;;;;17.40;55.27;98829.34;7379010;19;19986;-77
2023/05/25 08:51:08;;;;;;;;;;;;;;;17.78;55.93;98834.50;7375374;19;19945;-76
2023/05/25 08:53:37;;;;;;;;;;;;;;;17.84;52.83;98824.91;7378145;19;19914;-78
2023/05/25 08:56:13;;;;;;;;;;;;;;;17.73;51.34;98826.22;7381855;19;19982;-77
2023/05/25 08:58:43;;;;;;;;;;;;;;;17.90;53.20;98824.13;7380505;19;21636;-78
2023/05/25 09:01:10;;;;;;;;;;;;;;;17.87;54.12;98825.34;7377886;19;19921;-81
2023/05/25 09:03:37;;;;;;;;;;;;;;;17.84;52.29;98823.06;7379269;19;19915;-77
2023/05/25 09:06:04;;;;;;;;;;;;;;;17.78;52.47;98815.78;7376980;19;20241;-79
2023/05/25 09:08:31;;;;;;;;;;;;;;;17.92;54.64;98820.25;7377776;19;19919;-77
2023/05/25 09:10:58;;;;;;;;;;;;;;;17.77;52.79;98819.44;7382666;19;19943;-77
2023/05/25 09:13:25;;;;;;;;;;;;;;;17.90;55.17;98824.13;7374609;19;19930;-79
2023/05/25 09:15:51;;;;;;;;;;;;;;;18.00;54.07;98816.63;7376617;19;19919;-76
2023/05/25 09:18:18;;;;;;;;;;;;;;;17.85;53.07;98814.03;7379777;19;19990;-81
2023/05/25 09:20:45;;;;;;;;;;;;;;;17.65;52.07;98810.28;7381617;19;19939;-81
2023/05/25 09:23:13;;;;;;;;;;;;;;;17.73;54.88;98818.19;7373537;19;19915;-77
2023/05/25 09:25:40;;;;;;;;;;;;;;;17.63;52.01;98821.19;7380489;19;20012;-81
2023/05/25 09:28:08;;;;;;;;;;;;;;;17.53;53.07;98824.16;7382343;19;19950;-79
2023/05/25 09:30:52;;;;;;;;;;;;;;;17.90;53.95;98824.13;7381825;19;20011;-79
2023/05/25 09:33:19;;;;;;;;;;;;;;;18.14;54.40;98828.25;7376731;19;19922;-78
2023/05/25 09:35:46;;;;;;;;;;;;;;;18.35;54.45;98833.59;7372535;19;19914;-77
2023/05/25 09:38:14;;;;;;;;;;;;;;;18.51;51.82;98826.28;7371510;19;19921;-78
2023/05/25 09:40:41;;;;;;;;;;;;;;;18.69;53.40;98831.97;7369213;19;19930;-80
2023/05/25 09:43:10;;;;;;;;;;;;;;;18.95;53.02;98834.00;7367989;19;19927;-80
2023/05/25 09:45:37;;;;;;;;;;;;;;;19.19;51.90;98838.03;7374253;19;19926;-80
2023/05/25 09:48:04;;;;;;;;;;;;;;;19.37;51.64;98834.81;7378992;19;19926;-76
2023/05/25 09:50:31;;;;;;;;;;;;;;;19.50;49.20;98817.91;7379439;19;19925;-78
2023/05/25 09:52:58;;;;;;;;;;;;;;;19.86;51.23;98830.22;7374703;19;19932;-79
2023/05/25 09:55:29;;;;;;;;;;;;;;;20.34;49.00;98824.66;7373935;19;19951;-78
2023/05/25 09:58:15;;;;;;;;;;;;;;;20.99;48.14;98830.16;7372223;19;19927;-77
2023/05/25 10:00:44;;;;;;;;;;;;;;;21.76;46.76;98828.38;7376387;19;20614;-76
2023/05/25 10:03:13;;;;;;;;;;;;;;;22.41;44.60;98824.56;7377869;19;19948;-77
2023/05/25 10:05:41;;;;;;;;;;;;;;;22.82;43.05;98823.97;7383890;19;19955;-78
2023/05/25 10:08:07;;;;;;;;;;;;;;;22.93;43.16;98825.09;7379504;19;19919;-76
2023/05/25 10:10:34;;;;;;;;;;;;;;;22.88;43.06;98814.16;7384158;19;19922;-76
2023/05/25 10:13:01;;;;;;;;;;;;;;;22.79;43.20;98819.84;7377964;19;19919;-82
2023/05/25 10:15:28;;;;;;;;;;;;;;;22.14;42.23;98814.84;7382407;19;19930;-82
2023/05/25 10:17:54;;;;;;;;;;;;;;;21.48;44.48;98818.81;7389110;19;19927;-77
2023/05/25 10:20:22;;;;;;;;;;;;;;;21.05;44.13;98815.84;7383879;19;19919;-77
2023/05/25 10:23:03;;;;;;;;;;;;;;;20.94;45.74;98809.28;7381930;19;19910;-76
2023/05/25 10:25:32;;;;;;;;;;;;;;;20.89;45.94;98817.16;7391332;19;19927;-79
2023/05/25 10:28:04;;;;;;;;;;;;;;;21.08;47.66;98815.41;7383667;19;19919;-78
2023/05/25 10:30:31;;;;;;;;;;;;;;;20.99;44.80;98801.41;7378261;19;19915;-81
2023/05/25 10:32:58;;;;;;;;;;;;;;;20.65;45.11;98812.47;7384399;19;19930;-79
2023/05/25 10:35:27;;;;;;;;;;;;;;;20.68;47.24;98804.78;7383977;19;19940;-78
2023/05/25 10:37:57;;;;;;;;;;;;;;;20.54;48.37;98808.56;7381286;19;20400;-78
2023/05/25 10:40:24;;;;;;;;;;;;;;;20.36;47.04;98806.47;7384402;19;19994;-80
2023/05/25 10:42:51;;;;;;;;;;;;;;;20.04;46.87;98806.28;7381948;19;19970;-78
2023/05/25 10:45:18;;;;;;;;;;;;;;;20.04;47.31;98803.59;7383529;19;20276;-77
2023/05/25 10:47:49;;;;;;;;;;;;;;;19.88;48.69;98801.28;7385564;19;19922;-78
2023/05/25 10:50:21;;;;;;;;;;;;;;;19.87;50.19;98797.78;7388403;19;19914;-78
2023/05/25 10:52:58;;;;;;;;;;;;;;;20.07;50.99;98802.34;7376816;19;19927;-77
2023/05/25 10:55:30;;;;;;;;;;;;;;;20.29;50.29;98811.00;7385001;19;19994;-81
2023/05/25 10:58:07;;;;;;;;;;;;;;;20.25;48.05;98804.38;7386323;19;19923;-79
2023/05/25 11:00:34;;;;;;;;;;;;;;;20.24;47.29;98808.13;7383885;19;19925;-80
2023/05/25 11:03:02;;;;;;;;;;;;;;;20.02;47.76;98808.34;7385541;19;19911;-78
2023/05/25 11:05:29;;;;;;;;;;;;;;;20.29;48.06;98811.00;7381271;19;19970;-77
2023/05/25 11:07:57;;;;;;;;;;;;;;;20.36;47.56;98809.97;7382575;19;19977;-78
2023/05/25 11:10:42;;;;;;;;;;;;;;;20.57;49.72;98808.13;7384001;19;19919;-78
2023/05/25 11:13:24;;;;;;;;;;;;;;;20.27;47.03;98805.84;7381581;19;19911;-76
2023/05/25 11:16:09;;;;;;;;;;;;;;;20.13;46.67;98804.19;7379375;19;19929;-80
2023/05/25 11:18:37;;;;;;;;;;;;;;;20.30;46.33;98796.53;7384988;19;19999;-78
2023/05/25 11:21:20;;;;;;;;;;;;;;;20.52;48.85;98797.97;7378614;19;19929;-76
2023/05/25 11:23:56;;;;;;;;;;;;;;;20.71;48.46;98803.53;7382000;19;20428;-77
2023/05/25 11:26:24;;;;;;;;;;;;;;;20.78;50.00;98807.06;7380492;19;19923;-78
2023/05/25 11:28:52;;;;;;;;;;;;;;;20.91;47.55;98795.44;7383581;19;19947;-77
2023/05/25 11:31:29;;;;;;;;;;;;;;;20.98;47.42;98797.03;7380410;19;19956;-82
2023/05/25 11:33:59;;;;;;;;;;;;;;;21.06;49.39;98790.59;7382289;19;19926;-77
2023/05/25 11:36:26;;;;;;;;;;;;;;;21.16;48.32;98800.91;7375207;19;19915;-77
2023/05/25 11:38:53;;;;;;;;;;;;;;;21.16;48.67;98793.66;7382838;19;19919;-78
2023/05/25 11:41:35;;;;;;;;;;;;;;;21.17;45.37;98795.31;7381265;19;19922;-81
2023/05/25 11:44:02;;;;;;;;;;;;;;;21.10;45.74;98788.31;7385009;19;20465;-80
2023/05/25 11:46:31;;;;;;;;;;;;;;;20.80;44.73;98789.66;7389036;19;19978;-82
2023/05/25 11:48:58;;;;;;;;;;;;;;;20.93;45.31;98787.97;7387067;19;19921;-79
2023/05/25 11:51:26;;;;;;;;;;;;;;;21.01;44.90;98787.72;7382000;19;19936;-78
2023/05/25 11:53:53;;;;;;;;;;;;;;;21.18;45.60;98783.50;7382035;19;19914;-76
2023/05/25 11:56:21;;;;;;;;;;;;;;;21.22;45.95;98783.91;7382368;19;19927;-79
2023/05/25 11:59:01;;;;;;;;;;;;;;;21.35;49.42;98783.81;7386863;19;20353;-77
2023/05/25 12:01:30;;;;;;;;;;;;;;;21.34;48.02;98784.88;7381959;19;19967;-78
2023/05/25 12:03:57;;;;;;;;;;;;;;;21.31;46.08;98781.81;7384486;19;19941;-78
2023/05/25 12:06:28;;;;;;;;;;;;;;;21.40;45.32;98780.53;7380315;19;19930;-80
2023/05/25 12:08:55;;;;;;;;;;;;;;;21.45;46.66;98789.59;7383663;19;19918;-78
2023/05/25 12:11:32;;;;;;;;;;;;;;;21.49;44.88;98787.31;7382938;19;19918;-78
2023/05/25 12:13:59;;;;;;;;;;;;;;;21.65;46.24;98783.28;7382844;19;19934;-79
2023/05/25 12:16:26;;;;;;;;;;;;;;;21.76;46.99;98785.28;7382047;19;19942;-80
2023/05/25 12:18:52;;;;;;;;;;;;;;;21.83;47.37;98793.31;7379775;19;19980;-78
2023/05/25 12:21:20;;;;;;;;;;;;;;;21.79;44.72;98781.31;7378020;19;20543;-78
2023/05/25 12:23:47;;;;;;;;;;;;;;;21.75;44.06;98782.78;7377459;19;19923;-80
2023/05/25 12:26:15;;;;;;;;;;;;;;;21.68;44.93;98782.84;7377577;19;20276;-78
2023/05/25 12:29:00;;;;;;;;;;;;;;;21.74;45.48;98778.47;7385140;19;20487;-76
2023/05/25 12:31:29;;;;;;;;;;;;;;;21.90;46.92;98775.22;7378276;19;20717;-80
2023/05/25 12:34:09;;;;;;;;;;;;;;;21.86;43.12;98774.84;7384384;19;19967;-77
2023/05/25 12:36:43;;;;;;;;;;;;;;;22.05;43.75;98783.00;7381625;19;19962;-80
2023/05/25 12:39:11;;;;;;;;;;;;;;;22.05;45.77;98778.44;7381728;19;19978;-77
2023/05/25 12:41:41;;;;;;;;;;;;;;;22.06;43.67;98781.94;7380418;19;20026;-81
2023/05/25 12:44:15;;;;;;;;;;;;;;;21.85;43.74;98783.97;7381018;19;19918;-82
2023/05/25 12:46:42;;;;;;;;;;;;;;;21.74;43.37;98776.59;7386633;19;20692;-79
2023/05/25 12:49:25;;;;;;;;;;;;;;;21.97;43.92;98778.69;7383523;19;19919;-79
2023/05/25 12:51:52;;;;;;;;;;;;;;;22.06;45.46;98776.53;7382649;19;19915;-79
2023/05/25 12:54:38;;;;;;;;;;;;;;;22.02;43.23;98783.44;7376955;19;19921;-84
2023/05/25 12:57:05;;;;;;;;;;;;;;;22.24;45.98;98783.91;7377624;19;19978;-79